sensor_id;sensor_type;location;lat;lon;timestamp;P1;durP1;ratioP1;P2;durP2;ratioP2
69894;SDS011;57172;52.034;5.090;2024-02-28T00:00:56;16.58;;;8.82;;
69894;SDS011;57172;52.034;5.090;2024-02-28T00:03:23;16.63;;;8.55;;
69894;SDS011;57172;52.034;5.090;2024-02-28T00:05:50;15.32;;;9.18;;
69894;SDS011;57172;52.034;5.090;2024-02-28T00:08:17;16.20;;;8.93;;
69894;SDS011;57172;52.034;5.090;2024-02-28T00:10:46;15.35;;;9.20;;
69894;SDS011;57172;52.034;5.090;2024-02-28T00:13:14;14.15;;;8.65;;
69894;SDS011;57172;52.034;5.090;2024-02-28T00:15:42;18.42;;;9.27;;
69894;SDS011;57172;52.034;5.090;2024-02-28T00:18:09;17.92;;;9.60;;
69894;SDS011;57172;52.034;5.090;2024-02-28T00:20:36;16.53;;;9.00;;
69894;SDS011;57172;52.034;5.090;2024-02-28T00:23:03;17.35;;;9.70;;
69894;SDS011;57172;52.034;5.090;2024-02-28T00:25:30;16.83;;;9.60;;
69894;SDS011;57172;52.034;5.090;2024-02-28T00:27:57;17.42;;;9.60;;
69894;SDS011;57172;52.034;5.090;2024-02-28T00:30:24;15.85;;;9.07;;
69894;SDS011;57172;52.034;5.090;2024-02-28T00:32:51;16.97;;;9.37;;
69894;SDS011;57172;52.034;5.090;2024-02-28T00:35:18;16.75;;;9.18;;
69894;SDS011;57172;52.034;5.090;2024-02-28T00:37:45;17.05;;;9.20;;
69894;SDS011;57172;52.034;5.090;2024-02-28T00:40:12;17.77;;;9.30;;
69894;SDS011;57172;52.034;5.090;2024-02-28T00:42:38;16.40;;;9.23;;
69894;SDS011;57172;52.034;5.090;2024-02-28T00:45:08;17.33;;;9.50;;
69894;SDS011;57172;52.034;5.090;2024-02-28T00:47:35;17.08;;;9.65;;
69894;SDS011;57172;52.034;5.090;2024-02-28T00:50:03;17.63;;;9.68;;
69894;SDS011;57172;52.034;5.090;2024-02-28T00:52:30;18.48;;;9.55;;
69894;SDS011;57172;52.034;5.090;2024-02-28T00:54:58;20.02;;;9.50;;
69894;SDS011;57172;52.034;5.090;2024-02-28T00:57:26;18.97;;;10.23;;
69894;SDS011;57172;52.034;5.090;2024-02-28T00:59:53;19.17;;;10.20;;
69894;SDS011;57172;52.034;5.090;2024-02-28T01:02:21;15.18;;;9.40;;
69894;SDS011;57172;52.034;5.090;2024-02-28T01:04:48;17.70;;;10.07;;
69894;SDS011;57172;52.034;5.090;2024-02-28T01:07:15;18.75;;;9.95;;
69894;SDS011;57172;52.034;5.090;2024-02-28T01:09:41;19.03;;;9.90;;
69894;SDS011;57172;52.034;5.090;2024-02-28T01:12:09;21.13;;;10.30;;
69894;SDS011;57172;52.034;5.090;2024-02-28T01:14:35;19.27;;;10.00;;
69894;SDS011;57172;52.034;5.090;2024-02-28T01:17:02;17.73;;;9.90;;
69894;SDS011;57172;52.034;5.090;2024-02-28T01:19:29;18.17;;;10.15;;
69894;SDS011;57172;52.034;5.090;2024-02-28T01:21:57;17.07;;;10.23;;
69894;SDS011;57172;52.034;5.090;2024-02-28T01:24:25;17.02;;;9.80;;
69894;SDS011;57172;52.034;5.090;2024-02-28T01:26:52;17.70;;;10.30;;
69894;SDS011;57172;52.034;5.090;2024-02-28T01:29:19;19.60;;;10.02;;
69894;SDS011;57172;52.034;5.090;2024-02-28T01:31:46;18.65;;;9.90;;
69894;SDS011;57172;52.034;5.090;2024-02-28T01:34:13;19.47;;;10.00;;
69894;SDS011;57172;52.034;5.090;2024-02-28T01:36:40;17.38;;;9.20;;
69894;SDS011;57172;52.034;5.090;2024-02-28T01:39:07;19.63;;;9.93;;
69894;SDS011;57172;52.034;5.090;2024-02-28T01:41:34;17.05;;;9.55;;
69894;SDS011;57172;52.034;5.090;2024-02-28T01:44:01;16.50;;;9.27;;
69894;SDS011;57172;52.034;5.090;2024-02-28T01:46:28;15.97;;;9.37;;
69894;SDS011;57172;52.034;5.090;2024-02-28T01:48:56;17.05;;;8.95;;
69894;SDS011;57172;52.034;5.090;2024-02-28T01:51:24;18.38;;;9.52;;
69894;SDS011;57172;52.034;5.090;2024-02-28T01:53:53;18.50;;;9.50;;
69894;SDS011;57172;52.034;5.090;2024-02-28T01:56:22;16.83;;;9.60;;
69894;SDS011;57172;52.034;5.090;2024-02-28T01:58:51;15.70;;;8.77;;
69894;SDS011;57172;52.034;5.090;2024-02-28T02:01:20;17.85;;;9.27;;
69894;SDS011;57172;52.034;5.090;2024-02-28T02:03:50;17.13;;;9.55;;
69894;SDS011;57172;52.034;5.090;2024-02-28T02:06:17;18.35;;;9.70;;
69894;SDS011;57172;52.034;5.090;2024-02-28T02:08:45;17.85;;;9.30;;
69894;SDS011;57172;52.034;5.090;2024-02-28T02:11:12;18.80;;;9.90;;
69894;SDS011;57172;52.034;5.090;2024-02-28T02:13:51;17.60;;;8.95;;
69894;SDS011;57172;52.034;5.090;2024-02-28T02:16:19;17.25;;;8.90;;
69894;SDS011;57172;52.034;5.090;2024-02-28T02:18:48;16.67;;;8.18;;
69894;SDS011;57172;52.034;5.090;2024-02-28T02:21:17;18.08;;;8.57;;
69894;SDS011;57172;52.034;5.090;2024-02-28T02:23:45;16.80;;;8.70;;
69894;SDS011;57172;52.034;5.090;2024-02-28T02:26:12;20.33;;;8.32;;
69894;SDS011;57172;52.034;5.090;2024-02-28T02:28:39;17.10;;;8.85;;
69894;SDS011;57172;52.034;5.090;2024-02-28T02:31:06;18.75;;;8.93;;
69894;SDS011;57172;52.034;5.090;2024-02-28T02:33:32;17.20;;;9.65;;
69894;SDS011;57172;52.034;5.090;2024-02-28T02:35:59;15.60;;;8.53;;
69894;SDS011;57172;52.034;5.090;2024-02-28T02:38:26;19.45;;;9.75;;
69894;SDS011;57172;52.034;5.090;2024-02-28T02:40:53;16.27;;;9.48;;
69894;SDS011;57172;52.034;5.090;2024-02-28T02:43:20;18.38;;;10.43;;
69894;SDS011;57172;52.034;5.090;2024-02-28T02:45:47;17.98;;;10.57;;
69894;SDS011;57172;52.034;5.090;2024-02-28T02:48:14;18.60;;;9.97;;
69894;SDS011;57172;52.034;5.090;2024-02-28T02:50:41;17.75;;;10.10;;
69894;SDS011;57172;52.034;5.090;2024-02-28T02:53:09;22.33;;;10.52;;
69894;SDS011;57172;52.034;5.090;2024-02-28T02:55:37;18.55;;;10.13;;
69894;SDS011;57172;52.034;5.090;2024-02-28T02:58:04;20.88;;;10.07;;
69894;SDS011;57172;52.034;5.090;2024-02-28T03:00:31;19.83;;;10.33;;
69894;SDS011;57172;52.034;5.090;2024-02-28T03:02:58;20.88;;;9.93;;
69894;SDS011;57172;52.034;5.090;2024-02-28T03:05:25;19.30;;;10.90;;
69894;SDS011;57172;52.034;5.090;2024-02-28T03:07:51;18.90;;;10.98;;
69894;SDS011;57172;52.034;5.090;2024-02-28T03:10:18;17.20;;;9.45;;
69894;SDS011;57172;52.034;5.090;2024-02-28T03:12:45;18.50;;;8.20;;
69894;SDS011;57172;52.034;5.090;2024-02-28T03:15:12;21.05;;;10.88;;
69894;SDS011;57172;52.034;5.090;2024-02-28T03:17:39;20.58;;;10.93;;
69894;SDS011;57172;52.034;5.090;2024-02-28T03:20:06;20.60;;;10.65;;
69894;SDS011;57172;52.034;5.090;2024-02-28T03:22:34;20.10;;;10.55;;
69894;SDS011;57172;52.034;5.090;2024-02-28T03:25:00;18.80;;;10.30;;
69894;SDS011;57172;52.034;5.090;2024-02-28T03:27:27;20.75;;;10.38;;
69894;SDS011;57172;52.034;5.090;2024-02-28T03:29:54;20.17;;;10.93;;
69894;SDS011;57172;52.034;5.090;2024-02-28T03:32:21;21.85;;;10.60;;
69894;SDS011;57172;52.034;5.090;2024-02-28T03:34:48;19.73;;;10.70;;
69894;SDS011;57172;52.034;5.090;2024-02-28T03:37:15;19.23;;;10.77;;
69894;SDS011;57172;52.034;5.090;2024-02-28T03:39:42;21.50;;;10.95;;
69894;SDS011;57172;52.034;5.090;2024-02-28T03:42:09;20.75;;;11.50;;
69894;SDS011;57172;52.034;5.090;2024-02-28T03:44:35;21.42;;;11.02;;
69894;SDS011;57172;52.034;5.090;2024-02-28T03:47:03;18.80;;;10.60;;
69894;SDS011;57172;52.034;5.090;2024-02-28T03:49:30;20.13;;;10.97;;
69894;SDS011;57172;52.034;5.090;2024-02-28T03:51:57;20.50;;;11.35;;
69894;SDS011;57172;52.034;5.090;2024-02-28T03:54:24;21.90;;;11.52;;
69894;SDS011;57172;52.034;5.090;2024-02-28T03:56:50;20.95;;;11.70;;
69894;SDS011;57172;52.034;5.090;2024-02-28T03:59:17;20.67;;;11.43;;
69894;SDS011;57172;52.034;5.090;2024-02-28T04:01:44;17.90;;;9.87;;
69894;SDS011;57172;52.034;5.090;2024-02-28T04:04:11;20.30;;;11.43;;
69894;SDS011;57172;52.034;5.090;2024-02-28T04:06:38;19.95;;;11.30;;
69894;SDS011;57172;52.034;5.090;2024-02-28T04:09:05;20.50;;;11.70;;
69894;SDS011;57172;52.034;5.090;2024-02-28T04:11:32;20.63;;;11.40;;
69894;SDS011;57172;52.034;5.090;2024-02-28T04:14:00;18.50;;;9.70;;
69894;SDS011;57172;52.034;5.090;2024-02-28T04:16:27;20.23;;;11.40;;
69894;SDS011;57172;52.034;5.090;2024-02-28T04:18:54;20.13;;;10.88;;
69894;SDS011;57172;52.034;5.090;2024-02-28T04:21:21;18.38;;;10.70;;
69894;SDS011;57172;52.034;5.090;2024-02-28T04:23:48;20.38;;;10.98;;
69894;SDS011;57172;52.034;5.090;2024-02-28T04:26:15;19.60;;;11.07;;
69894;SDS011;57172;52.034;5.090;2024-02-28T04:28:42;21.20;;;11.38;;
69894;SDS011;57172;52.034;5.090;2024-02-28T04:31:09;19.40;;;11.05;;
69894;SDS011;57172;52.034;5.090;2024-02-28T04:33:36;23.20;;;11.50;;
69894;SDS011;57172;52.034;5.090;2024-02-28T04:36:03;20.45;;;11.27;;
69894;SDS011;57172;52.034;5.090;2024-02-28T04:38:30;18.93;;;9.77;;
69894;SDS011;57172;52.034;5.090;2024-02-28T04:40:57;21.58;;;11.02;;
69894;SDS011;57172;52.034;5.090;2024-02-28T04:43:23;21.30;;;10.90;;
69894;SDS011;57172;52.034;5.090;2024-02-28T04:45:50;21.30;;;10.65;;
69894;SDS011;57172;52.034;5.090;2024-02-28T04:48:17;23.90;;;10.88;;
69894;SDS011;57172;52.034;5.090;2024-02-28T04:50:44;19.13;;;10.87;;
69894;SDS011;57172;52.034;5.090;2024-02-28T04:53:11;19.95;;;10.35;;
69894;SDS011;57172;52.034;5.090;2024-02-28T04:55:38;25.17;;;11.13;;
69894;SDS011;57172;52.034;5.090;2024-02-28T04:58:05;24.10;;;11.45;;
69894;SDS011;57172;52.034;5.090;2024-02-28T05:00:31;24.20;;;11.27;;
69894;SDS011;57172;52.034;5.090;2024-02-28T05:02:58;21.73;;;11.03;;
69894;SDS011;57172;52.034;5.090;2024-02-28T05:05:25;21.38;;;10.02;;
69894;SDS011;57172;52.034;5.090;2024-02-28T05:07:52;23.75;;;11.35;;
69894;SDS011;57172;52.034;5.090;2024-02-28T05:10:19;23.90;;;11.63;;
69894;SDS011;57172;52.034;5.090;2024-02-28T05:12:46;21.88;;;11.32;;
69894;SDS011;57172;52.034;5.090;2024-02-28T05:15:13;20.97;;;11.17;;
69894;SDS011;57172;52.034;5.090;2024-02-28T05:17:40;19.13;;;10.18;;
69894;SDS011;57172;52.034;5.090;2024-02-28T05:20:07;22.65;;;12.00;;
69894;SDS011;57172;52.034;5.090;2024-02-28T05:22:35;24.30;;;11.60;;
69894;SDS011;57172;52.034;5.090;2024-02-28T05:25:02;21.40;;;10.77;;
69894;SDS011;57172;52.034;5.090;2024-02-28T05:27:29;20.20;;;11.40;;
69894;SDS011;57172;52.034;5.090;2024-02-28T05:29:56;22.90;;;10.95;;
69894;SDS011;57172;52.034;5.090;2024-02-28T05:32:23;21.80;;;11.10;;
69894;SDS011;57172;52.034;5.090;2024-02-28T05:34:50;25.42;;;11.75;;
69894;SDS011;57172;52.034;5.090;2024-02-28T05:37:17;22.50;;;11.85;;
69894;SDS011;57172;52.034;5.090;2024-02-28T05:39:44;23.97;;;12.70;;
69894;SDS011;57172;52.034;5.090;2024-02-28T05:42:11;24.25;;;12.70;;
69894;SDS011;57172;52.034;5.090;2024-02-28T05:44:38;24.52;;;13.25;;
69894;SDS011;57172;52.034;5.090;2024-02-28T05:47:05;23.20;;;12.10;;
69894;SDS011;57172;52.034;5.090;2024-02-28T05:49:32;24.85;;;12.85;;
69894;SDS011;57172;52.034;5.090;2024-02-28T05:51:58;26.00;;;13.43;;
69894;SDS011;57172;52.034;5.090;2024-02-28T05:54:25;25.63;;;13.18;;
69894;SDS011;57172;52.034;5.090;2024-02-28T05:56:56;23.88;;;13.15;;
69894;SDS011;57172;52.034;5.090;2024-02-28T05:59:23;24.63;;;12.68;;
69894;SDS011;57172;52.034;5.090;2024-02-28T06:01:51;24.52;;;12.05;;
69894;SDS011;57172;52.034;5.090;2024-02-28T06:04:18;22.90;;;12.17;;
69894;SDS011;57172;52.034;5.090;2024-02-28T06:06:45;25.27;;;12.50;;
69894;SDS011;57172;52.034;5.090;2024-02-28T06:09:12;24.23;;;13.65;;
69894;SDS011;57172;52.034;5.090;2024-02-28T06:11:39;22.73;;;12.20;;
69894;SDS011;57172;52.034;5.090;2024-02-28T06:14:06;22.10;;;11.23;;
69894;SDS011;57172;52.034;5.090;2024-02-28T06:16:32;29.13;;;13.63;;
69894;SDS011;57172;52.034;5.090;2024-02-28T06:18:59;25.63;;;13.80;;
69894;SDS011;57172;52.034;5.090;2024-02-28T06:21:31;22.77;;;12.35;;
69894;SDS011;57172;52.034;5.090;2024-02-28T06:23:58;24.75;;;12.13;;
69894;SDS011;57172;52.034;5.090;2024-02-28T06:26:24;27.17;;;13.13;;
69894;SDS011;57172;52.034;5.090;2024-02-28T06:28:51;27.10;;;14.17;;
69894;SDS011;57172;52.034;5.090;2024-02-28T06:31:19;25.00;;;13.35;;
69894;SDS011;57172;52.034;5.090;2024-02-28T06:33:46;23.33;;;14.00;;
69894;SDS011;57172;52.034;5.090;2024-02-28T06:36:13;23.88;;;13.02;;
69894;SDS011;57172;52.034;5.090;2024-02-28T06:38:40;24.85;;;13.88;;
69894;SDS011;57172;52.034;5.090;2024-02-28T06:41:07;26.00;;;14.07;;
69894;SDS011;57172;52.034;5.090;2024-02-28T06:43:35;27.02;;;13.88;;
69894;SDS011;57172;52.034;5.090;2024-02-28T06:46:02;27.33;;;14.43;;
69894;SDS011;57172;52.034;5.090;2024-02-28T06:48:30;28.30;;;13.13;;
69894;SDS011;57172;52.034;5.090;2024-02-28T06:50:57;27.98;;;14.32;;
69894;SDS011;57172;52.034;5.090;2024-02-28T06:53:24;27.43;;;13.90;;
69894;SDS011;57172;52.034;5.090;2024-02-28T06:55:52;25.50;;;13.75;;
69894;SDS011;57172;52.034;5.090;2024-02-28T06:58:19;27.48;;;14.43;;
69894;SDS011;57172;52.034;5.090;2024-02-28T07:00:46;27.35;;;14.02;;
69894;SDS011;57172;52.034;5.090;2024-02-28T07:03:19;23.58;;;12.95;;
69894;SDS011;57172;52.034;5.090;2024-02-28T07:05:46;23.10;;;13.97;;
69894;SDS011;57172;52.034;5.090;2024-02-28T07:08:13;25.95;;;14.38;;
69894;SDS011;57172;52.034;5.090;2024-02-28T07:10:40;25.67;;;13.23;;
69894;SDS011;57172;52.034;5.090;2024-02-28T07:13:10;27.23;;;14.23;;
69894;SDS011;57172;52.034;5.090;2024-02-28T07:15:37;29.83;;;14.48;;
69894;SDS011;57172;52.034;5.090;2024-02-28T07:18:06;23.13;;;13.63;;
69894;SDS011;57172;52.034;5.090;2024-02-28T07:20:33;25.70;;;13.18;;
69894;SDS011;57172;52.034;5.090;2024-02-28T07:23:01;29.05;;;14.57;;
69894;SDS011;57172;52.034;5.090;2024-02-28T07:25:27;32.25;;;15.15;;
69894;SDS011;57172;52.034;5.090;2024-02-28T07:27:56;27.52;;;13.70;;
69894;SDS011;57172;52.034;5.090;2024-02-28T07:30:25;27.77;;;14.53;;
69894;SDS011;57172;52.034;5.090;2024-02-28T07:32:52;24.10;;;12.55;;
69894;SDS011;57172;52.034;5.090;2024-02-28T07:35:19;27.98;;;14.77;;
69894;SDS011;57172;52.034;5.090;2024-02-28T07:37:47;25.25;;;13.07;;
69894;SDS011;57172;52.034;5.090;2024-02-28T07:40:14;27.75;;;14.50;;
69894;SDS011;57172;52.034;5.090;2024-02-28T07:42:40;24.97;;;14.33;;
69894;SDS011;57172;52.034;5.090;2024-02-28T07:45:07;25.95;;;15.00;;
69894;SDS011;57172;52.034;5.090;2024-02-28T07:47:35;25.15;;;13.27;;
69894;SDS011;57172;52.034;5.090;2024-02-28T07:50:02;29.20;;;14.52;;
69894;SDS011;57172;52.034;5.090;2024-02-28T07:52:29;28.77;;;15.00;;
69894;SDS011;57172;52.034;5.090;2024-02-28T07:54:56;27.47;;;15.37;;
69894;SDS011;57172;52.034;5.090;2024-02-28T07:57:22;25.67;;;13.65;;
69894;SDS011;57172;52.034;5.090;2024-02-28T07:59:49;25.35;;;13.80;;
69894;SDS011;57172;52.034;5.090;2024-02-28T08:02:17;24.38;;;11.77;;
69894;SDS011;57172;52.034;5.090;2024-02-28T08:04:46;27.48;;;14.10;;
69894;SDS011;57172;52.034;5.090;2024-02-28T08:07:13;29.50;;;15.17;;
69894;SDS011;57172;52.034;5.090;2024-02-28T08:09:41;30.05;;;16.08;;
69894;SDS011;57172;52.034;5.090;2024-02-28T08:12:08;28.33;;;15.35;;
69894;SDS011;57172;52.034;5.090;2024-02-28T08:14:35;26.48;;;14.50;;
69894;SDS011;57172;52.034;5.090;2024-02-28T08:17:02;22.73;;;11.85;;
69894;SDS011;57172;52.034;5.090;2024-02-28T08:19:28;24.63;;;14.07;;
69894;SDS011;57172;52.034;5.090;2024-02-28T08:21:55;26.65;;;14.25;;
69894;SDS011;57172;52.034;5.090;2024-02-28T08:24:22;29.63;;;15.23;;
69894;SDS011;57172;52.034;5.090;2024-02-28T08:26:49;33.45;;;13.77;;
69894;SDS011;57172;52.034;5.090;2024-02-28T08:29:16;31.13;;;15.60;;
69894;SDS011;57172;52.034;5.090;2024-02-28T08:31:43;25.70;;;14.13;;
69894;SDS011;57172;52.034;5.090;2024-02-28T08:34:10;29.02;;;14.73;;
69894;SDS011;57172;52.034;5.090;2024-02-28T08:36:38;30.27;;;15.30;;
69894;SDS011;57172;52.034;5.090;2024-02-28T08:39:07;23.80;;;13.48;;
69894;SDS011;57172;52.034;5.090;2024-02-28T08:41:35;24.92;;;14.35;;
69894;SDS011;57172;52.034;5.090;2024-02-28T08:44:02;26.00;;;12.40;;
69894;SDS011;57172;52.034;5.090;2024-02-28T08:46:29;22.90;;;13.45;;
69894;SDS011;57172;52.034;5.090;2024-02-28T08:48:56;25.33;;;13.82;;
69894;SDS011;57172;52.034;5.090;2024-02-28T08:51:23;24.08;;;14.13;;
69894;SDS011;57172;52.034;5.090;2024-02-28T08:53:50;24.00;;;13.95;;
69894;SDS011;57172;52.034;5.090;2024-02-28T08:56:19;24.13;;;13.87;;
69894;SDS011;57172;52.034;5.090;2024-02-28T08:58:46;28.02;;;14.90;;
69894;SDS011;57172;52.034;5.090;2024-02-28T09:01:13;29.05;;;13.15;;
69894;SDS011;57172;52.034;5.090;2024-02-28T09:03:41;22.83;;;10.52;;
69894;SDS011;57172;52.034;5.090;2024-02-28T09:06:08;28.58;;;15.40;;
69894;SDS011;57172;52.034;5.090;2024-02-28T09:08:35;28.43;;;15.17;;
69894;SDS011;57172;52.034;5.090;2024-02-28T09:11:02;26.92;;;14.55;;
69894;SDS011;57172;52.034;5.090;2024-02-28T09:13:30;26.58;;;15.63;;
69894;SDS011;57172;52.034;5.090;2024-02-28T09:15:57;24.77;;;14.40;;
69894;SDS011;57172;52.034;5.090;2024-02-28T09:18:24;28.95;;;15.25;;
69894;SDS011;57172;52.034;5.090;2024-02-28T09:20:51;26.10;;;14.27;;
69894;SDS011;57172;52.034;5.090;2024-02-28T09:23:18;25.23;;;14.70;;
69894;SDS011;57172;52.034;5.090;2024-02-28T09:25:45;26.25;;;15.18;;
69894;SDS011;57172;52.034;5.090;2024-02-28T09:28:12;28.58;;;14.55;;
69894;SDS011;57172;52.034;5.090;2024-02-28T09:30:41;24.80;;;13.57;;
69894;SDS011;57172;52.034;5.090;2024-02-28T09:33:18;26.60;;;15.13;;
69894;SDS011;57172;52.034;5.090;2024-02-28T09:35:46;26.70;;;15.63;;
69894;SDS011;57172;52.034;5.090;2024-02-28T09:38:13;24.25;;;14.13;;
69894;SDS011;57172;52.034;5.090;2024-02-28T09:40:39;24.33;;;14.23;;
69894;SDS011;57172;52.034;5.090;2024-02-28T09:43:07;25.13;;;14.07;;
69894;SDS011;57172;52.034;5.090;2024-02-28T09:45:39;25.13;;;13.57;;
69894;SDS011;57172;52.034;5.090;2024-02-28T09:48:08;23.67;;;14.40;;
69894;SDS011;57172;52.034;5.090;2024-02-28T09:50:36;24.40;;;13.40;;
69894;SDS011;57172;52.034;5.090;2024-02-28T09:53:05;25.42;;;14.00;;
69894;SDS011;57172;52.034;5.090;2024-02-28T09:55:36;24.95;;;14.52;;
69894;SDS011;57172;52.034;5.090;2024-02-28T09:58:03;25.10;;;13.97;;
69894;SDS011;57172;52.034;5.090;2024-02-28T10:00:31;25.45;;;14.20;;
69894;SDS011;57172;52.034;5.090;2024-02-28T10:03:00;29.02;;;16.40;;
69894;SDS011;57172;52.034;5.090;2024-02-28T10:05:27;25.70;;;16.00;;
69894;SDS011;57172;52.034;5.090;2024-02-28T10:07:55;28.58;;;16.30;;
69894;SDS011;57172;52.034;5.090;2024-02-28T10:10:22;29.40;;;16.27;;
69894;SDS011;57172;52.034;5.090;2024-02-28T10:12:49;23.77;;;13.38;;
69894;SDS011;57172;52.034;5.090;2024-02-28T10:15:16;28.58;;;17.38;;
69894;SDS011;57172;52.034;5.090;2024-02-28T10:17:43;25.55;;;15.48;;
69894;SDS011;57172;52.034;5.090;2024-02-28T10:20:10;28.65;;;14.98;;
69894;SDS011;57172;52.034;5.090;2024-02-28T10:22:37;25.73;;;13.77;;
69894;SDS011;57172;52.034;5.090;2024-02-28T10:25:05;25.98;;;14.43;;
69894;SDS011;57172;52.034;5.090;2024-02-28T10:27:35;26.98;;;15.07;;
69894;SDS011;57172;52.034;5.090;2024-02-28T10:30:03;25.67;;;13.95;;
69894;SDS011;57172;52.034;5.090;2024-02-28T10:32:34;27.65;;;14.73;;
69894;SDS011;57172;52.034;5.090;2024-02-28T10:35:02;24.87;;;14.10;;
69894;SDS011;57172;52.034;5.090;2024-02-28T10:37:30;24.27;;;15.32;;
69894;SDS011;57172;52.034;5.090;2024-02-28T10:39:59;24.13;;;14.25;;
69894;SDS011;57172;52.034;5.090;2024-02-28T10:42:28;24.27;;;13.43;;
69894;SDS011;57172;52.034;5.090;2024-02-28T10:44:59;24.77;;;14.07;;
69894;SDS011;57172;52.034;5.090;2024-02-28T10:47:43;24.43;;;14.00;;
69894;SDS011;57172;52.034;5.090;2024-02-28T10:50:12;22.98;;;13.40;;
69894;SDS011;57172;52.034;5.090;2024-02-28T10:52:39;23.15;;;13.15;;
69894;SDS011;57172;52.034;5.090;2024-02-28T10:55:10;23.02;;;13.85;;
69894;SDS011;57172;52.034;5.090;2024-02-28T10:57:37;22.20;;;11.90;;
69894;SDS011;57172;52.034;5.090;2024-02-28T11:00:05;23.20;;;13.03;;
69894;SDS011;57172;52.034;5.090;2024-02-28T11:02:33;21.65;;;12.38;;
69894;SDS011;57172;52.034;5.090;2024-02-28T11:05:00;21.40;;;12.70;;
69894;SDS011;57172;52.034;5.090;2024-02-28T11:07:30;24.75;;;13.23;;
69894;SDS011;57172;52.034;5.090;2024-02-28T11:09:57;19.20;;;9.52;;
69894;SDS011;57172;52.034;5.090;2024-02-28T11:12:27;27.67;;;14.23;;
69894;SDS011;57172;52.034;5.090;2024-02-28T11:15:02;22.05;;;12.63;;
69894;SDS011;57172;52.034;5.090;2024-02-28T11:17:32;23.85;;;14.30;;
69894;SDS011;57172;52.034;5.090;2024-02-28T11:19:59;26.33;;;14.85;;
69894;SDS011;57172;52.034;5.090;2024-02-28T11:22:36;25.70;;;14.40;;
69894;SDS011;57172;52.034;5.090;2024-02-28T11:25:04;30.40;;;15.70;;
69894;SDS011;57172;52.034;5.090;2024-02-28T11:27:31;22.23;;;12.48;;
69894;SDS011;57172;52.034;5.090;2024-02-28T11:29:58;21.88;;;13.05;;
69894;SDS011;57172;52.034;5.090;2024-02-28T11:32:26;24.92;;;12.70;;
69894;SDS011;57172;52.034;5.090;2024-02-28T11:34:56;23.85;;;13.48;;
69894;SDS011;57172;52.034;5.090;2024-02-28T11:37:22;24.70;;;14.23;;
69894;SDS011;57172;52.034;5.090;2024-02-28T11:39:49;30.40;;;15.57;;
69894;SDS011;57172;52.034;5.090;2024-02-28T11:42:17;27.15;;;15.38;;
69894;SDS011;57172;52.034;5.090;2024-02-28T11:44:52;26.27;;;13.60;;
69894;SDS011;57172;52.034;5.090;2024-02-28T11:47:26;27.85;;;13.77;;
69894;SDS011;57172;52.034;5.090;2024-02-28T11:49:57;28.07;;;15.73;;
69894;SDS011;57172;52.034;5.090;2024-02-28T11:52:25;26.55;;;14.82;;
69894;SDS011;57172;52.034;5.090;2024-02-28T11:54:52;29.05;;;15.13;;
69894;SDS011;57172;52.034;5.090;2024-02-28T11:57:20;24.95;;;14.45;;
69894;SDS011;57172;52.034;5.090;2024-02-28T11:59:47;27.90;;;15.13;;
69894;SDS011;57172;52.034;5.090;2024-02-28T12:02:15;25.87;;;14.57;;
69894;SDS011;57172;52.034;5.090;2024-02-28T12:04:42;23.92;;;13.43;;
69894;SDS011;57172;52.034;5.090;2024-02-28T12:07:09;24.73;;;13.68;;
69894;SDS011;57172;52.034;5.090;2024-02-28T12:09:37;20.50;;;12.27;;
69894;SDS011;57172;52.034;5.090;2024-02-28T12:12:08;23.40;;;12.10;;
69894;SDS011;57172;52.034;5.090;2024-02-28T12:14:38;22.57;;;12.70;;
69894;SDS011;57172;52.034;5.090;2024-02-28T12:17:06;22.48;;;10.65;;
69894;SDS011;57172;52.034;5.090;2024-02-28T12:19:34;23.70;;;11.55;;
69894;SDS011;57172;52.034;5.090;2024-02-28T12:22:01;20.95;;;11.50;;
69894;SDS011;57172;52.034;5.090;2024-02-28T12:24:28;19.20;;;10.73;;
69894;SDS011;57172;52.034;5.090;2024-02-28T12:26:55;21.17;;;12.30;;
69894;SDS011;57172;52.034;5.090;2024-02-28T12:29:22;19.88;;;10.75;;
69894;SDS011;57172;52.034;5.090;2024-02-28T12:31:49;19.27;;;10.80;;
69894;SDS011;57172;52.034;5.090;2024-02-28T12:34:16;24.02;;;10.60;;
69894;SDS011;57172;52.034;5.090;2024-02-28T12:36:43;21.08;;;11.20;;
69894;SDS011;57172;52.034;5.090;2024-02-28T12:39:12;22.23;;;11.57;;
69894;SDS011;57172;52.034;5.090;2024-02-28T12:41:39;19.70;;;10.63;;
69894;SDS011;57172;52.034;5.090;2024-02-28T12:44:07;28.77;;;13.35;;
69894;SDS011;57172;52.034;5.090;2024-02-28T12:46:34;21.65;;;11.52;;
69894;SDS011;57172;52.034;5.090;2024-02-28T12:49:02;20.92;;;10.45;;
69894;SDS011;57172;52.034;5.090;2024-02-28T12:51:35;25.23;;;12.90;;
69894;SDS011;57172;52.034;5.090;2024-02-28T12:54:03;21.73;;;10.68;;
69894;SDS011;57172;52.034;5.090;2024-02-28T12:56:31;21.75;;;12.35;;
69894;SDS011;57172;52.034;5.090;2024-02-28T12:58:57;24.95;;;13.18;;
69894;SDS011;57172;52.034;5.090;2024-02-28T13:01:25;24.98;;;12.93;;
69894;SDS011;57172;52.034;5.090;2024-02-28T13:03:53;25.43;;;12.87;;
69894;SDS011;57172;52.034;5.090;2024-02-28T13:06:20;24.83;;;12.25;;
69894;SDS011;57172;52.034;5.090;2024-02-28T13:08:47;25.88;;;12.27;;
69894;SDS011;57172;52.034;5.090;2024-02-28T13:11:18;23.63;;;12.75;;
69894;SDS011;57172;52.034;5.090;2024-02-28T13:13:49;24.17;;;12.82;;
69894;SDS011;57172;52.034;5.090;2024-02-28T13:16:20;26.80;;;13.90;;
69894;SDS011;57172;52.034;5.090;2024-02-28T13:18:50;22.40;;;12.55;;
69894;SDS011;57172;52.034;5.090;2024-02-28T13:21:17;24.40;;;12.93;;
69894;SDS011;57172;52.034;5.090;2024-02-28T13:23:44;25.33;;;13.15;;
69894;SDS011;57172;52.034;5.090;2024-02-28T13:26:11;28.23;;;13.45;;
69894;SDS011;57172;52.034;5.090;2024-02-28T13:28:45;25.00;;;13.73;;
69894;SDS011;57172;52.034;5.090;2024-02-28T13:31:16;25.60;;;13.25;;
69894;SDS011;57172;52.034;5.090;2024-02-28T13:33:43;25.60;;;13.55;;
69894;SDS011;57172;52.034;5.090;2024-02-28T13:36:10;25.17;;;13.30;;
69894;SDS011;57172;52.034;5.090;2024-02-28T13:38:37;29.02;;;14.35;;
69894;SDS011;57172;52.034;5.090;2024-02-28T13:41:04;27.20;;;13.87;;
69894;SDS011;57172;52.034;5.090;2024-02-28T13:43:31;23.63;;;11.40;;
69894;SDS011;57172;52.034;5.090;2024-02-28T13:45:58;24.92;;;12.18;;
69894;SDS011;57172;52.034;5.090;2024-02-28T13:48:27;26.30;;;13.32;;
69894;SDS011;57172;52.034;5.090;2024-02-28T13:51:00;23.70;;;12.93;;
69894;SDS011;57172;52.034;5.090;2024-02-28T13:53:28;20.87;;;10.67;;
69894;SDS011;57172;52.034;5.090;2024-02-28T13:55:55;24.60;;;13.18;;
69894;SDS011;57172;52.034;5.090;2024-02-28T13:58:21;25.67;;;13.25;;
69894;SDS011;57172;52.034;5.090;2024-02-28T14:00:48;24.85;;;12.68;;
69894;SDS011;57172;52.034;5.090;2024-02-28T14:03:15;23.80;;;11.30;;
69894;SDS011;57172;52.034;5.090;2024-02-28T14:05:42;18.73;;;10.10;;
69894;SDS011;57172;52.034;5.090;2024-02-28T14:08:09;21.88;;;11.40;;
69894;SDS011;57172;52.034;5.090;2024-02-28T14:10:39;23.23;;;11.50;;
69894;SDS011;57172;52.034;5.090;2024-02-28T14:13:06;21.05;;;11.45;;
69894;SDS011;57172;52.034;5.090;2024-02-28T14:15:33;24.35;;;11.77;;
69894;SDS011;57172;52.034;5.090;2024-02-28T14:18:02;22.57;;;10.90;;
69894;SDS011;57172;52.034;5.090;2024-02-28T14:20:30;24.65;;;12.27;;
69894;SDS011;57172;52.034;5.090;2024-02-28T14:22:57;25.85;;;11.50;;
69894;SDS011;57172;52.034;5.090;2024-02-28T14:25:24;28.73;;;12.23;;